sensor_id;sensor_type;location;lat;lon;timestamp;temperature;humidity
2441;DHT22;1231;53.988;9.470;2023-04-30T00:02:32;4.20;81.40
2441;DHT22;1231;53.988;9.470;2023-04-30T00:05:23;4.10;81.50
2441;DHT22;1231;53.988;9.470;2023-04-30T00:08:14;4.10;81.50
2441;DHT22;1231;53.988;9.470;2023-04-30T00:11:05;4.00;81.60
2441;DHT22;1231;53.988;9.470;2023-04-30T00:13:56;4.00;81.70
2441;DHT22;1231;53.988;9.470;2023-04-30T00:16:47;3.90;81.80
2441;DHT22;1231;53.988;9.470;2023-04-30T00:19:38;3.90;82.00
2441;DHT22;1231;53.988;9.470;2023-04-30T00:22:29;3.80;82.10
2441;DHT22;1231;53.988;9.470;2023-04-30T00:25:20;3.80;82.20
2441;DHT22;1231;53.988;9.470;2023-04-30T00:28:14;3.70;82.30
2441;DHT22;1231;53.988;9.470;2023-04-30T00:31:05;3.70;82.40
2441;DHT22;1231;53.988;9.470;2023-04-30T00:33:58;3.60;82.50
2441;DHT22;1231;53.988;9.470;2023-04-30T00:36:49;3.60;82.60
2441;DHT22;1231;53.988;9.470;2023-04-30T00:39:40;3.60;82.80
2441;DHT22;1231;53.988;9.470;2023-04-30T00:42:31;3.60;82.90
2441;DHT22;1231;53.988;9.470;2023-04-30T00:45:22;3.50;83.10
2441;DHT22;1231;53.988;9.470;2023-04-30T00:48:20;3.50;83.30
2441;DHT22;1231;53.988;9.470;2023-04-30T00:51:12;3.50;83.50
2441;DHT22;1231;53.988;9.470;2023-04-30T00:54:03;3.50;83.90
2441;DHT22;1231;53.988;9.470;2023-04-30T00:56:54;3.50;84.00
2441;DHT22;1231;53.988;9.470;2023-04-30T00:59:45;3.50;84.00
2441;DHT22;1231;53.988;9.470;2023-04-30T01:02:36;3.50;84.00
2441;DHT22;1231;53.988;9.470;2023-04-30T01:05:27;3.50;84.00
2441;DHT22;1231;53.988;9.470;2023-04-30T01:08:19;3.50;84.10
2441;DHT22;1231;53.988;9.470;2023-04-30T01:14:16;3.60;84.20
2441;DHT22;1231;53.988;9.470;2023-04-30T01:17:20;3.60;84.30
2441;DHT22;1231;53.988;9.470;2023-04-30T01:20:13;3.60;84.30
2441;DHT22;1231;53.988;9.470;2023-04-30T01:29:18;3.60;84.30
2441;DHT22;1231;53.988;9.470;2023-04-30T01:32:16;3.60;84.50
2441;DHT22;1231;53.988;9.470;2023-04-30T01:35:08;3.60;84.70
2441;DHT22;1231;53.988;9.470;2023-04-30T01:41:49;3.60;84.90
2441;DHT22;1231;53.988;9.470;2023-04-30T01:51:22;3.60;84.50
2441;DHT22;1231;53.988;9.470;2023-04-30T01:57:25;3.50;84.20
2441;DHT22;1231;53.988;9.470;2023-04-30T02:00:17;3.40;84.30
2441;DHT22;1231;53.988;9.470;2023-04-30T02:03:08;3.40;84.20
2441;DHT22;1231;53.988;9.470;2023-04-30T02:05:59;3.40;84.20
2441;DHT22;1231;53.988;9.470;2023-04-30T02:08:50;3.30;84.40
2441;DHT22;1231;53.988;9.470;2023-04-30T02:11:41;3.30;84.50
2441;DHT22;1231;53.988;9.470;2023-04-30T02:14:32;3.30;84.60
2441;DHT22;1231;53.988;9.470;2023-04-30T02:17:23;3.30;84.60
2441;DHT22;1231;53.988;9.470;2023-04-30T02:20:14;3.20;84.60
2441;DHT22;1231;53.988;9.470;2023-04-30T02:23:05;3.20;84.60
2441;DHT22;1231;53.988;9.470;2023-04-30T02:25:56;3.20;84.60
2441;DHT22;1231;53.988;9.470;2023-04-30T02:28:47;3.10;84.50
2441;DHT22;1231;53.988;9.470;2023-04-30T02:31:38;3.10;84.40
2441;DHT22;1231;53.988;9.470;2023-04-30T02:34:29;3.00;84.40
2441;DHT22;1231;53.988;9.470;2023-04-30T02:37:19;3.00;84.40
2441;DHT22;1231;53.988;9.470;2023-04-30T02:40:11;3.00;84.50
2441;DHT22;1231;53.988;9.470;2023-04-30T02:43:02;2.90;84.50
2441;DHT22;1231;53.988;9.470;2023-04-30T02:45:53;2.90;84.50
2441;DHT22;1231;53.988;9.470;2023-04-30T02:48:44;2.90;84.40
2441;DHT22;1231;53.988;9.470;2023-04-30T02:51:34;2.80;84.40
2441;DHT22;1231;53.988;9.470;2023-04-30T02:54:25;2.80;84.30
2441;DHT22;1231;53.988;9.470;2023-04-30T02:57:16;2.70;84.50
2441;DHT22;1231;53.988;9.470;2023-04-30T03:00:08;2.70;84.60
2441;DHT22;1231;53.988;9.470;2023-04-30T03:02:59;2.70;84.60
2441;DHT22;1231;53.988;9.470;2023-04-30T03:05:50;2.70;84.70
2441;DHT22;1231;53.988;9.470;2023-04-30T03:08:41;2.60;84.70
2441;DHT22;1231;53.988;9.470;2023-04-30T03:11:32;2.60;84.70
2441;DHT22;1231;53.988;9.470;2023-04-30T03:14:23;2.60;84.80
2441;DHT22;1231;53.988;9.470;2023-04-30T03:17:14;2.50;84.80
2441;DHT22;1231;53.988;9.470;2023-04-30T03:20:06;2.50;84.80
2441;DHT22;1231;53.988;9.470;2023-04-30T03:22:57;2.50;84.80
2441;DHT22;1231;53.988;9.470;2023-04-30T03:25:48;2.50;84.80
2441;DHT22;1231;53.988;9.470;2023-04-30T03:28:39;2.50;84.90
2441;DHT22;1231;53.988;9.470;2023-04-30T03:31:30;2.40;84.90
2441;DHT22;1231;53.988;9.470;2023-04-30T03:34:21;2.40;84.90
2441;DHT22;1231;53.988;9.470;2023-04-30T03:37:12;2.40;85.00
2441;DHT22;1231;53.988;9.470;2023-04-30T03:40:03;2.40;85.00
2441;DHT22;1231;53.988;9.470;2023-04-30T03:42:54;2.40;85.00
2441;DHT22;1231;53.988;9.470;2023-04-30T03:45:45;2.40;85.00
2441;DHT22;1231;53.988;9.470;2023-04-30T03:48:36;2.40;85.00
2441;DHT22;1231;53.988;9.470;2023-04-30T03:51:28;2.40;85.00
2441;DHT22;1231;53.988;9.470;2023-04-30T03:54:18;2.40;85.00
2441;DHT22;1231;53.988;9.470;2023-04-30T03:57:09;2.40;85.00
2441;DHT22;1231;53.988;9.470;2023-04-30T04:00:02;2.40;85.00
2441;DHT22;1231;53.988;9.470;2023-04-30T04:02:57;2.50;85.00
2441;DHT22;1231;53.988;9.470;2023-04-30T04:05:49;2.50;85.10
2441;DHT22;1231;53.988;9.470;2023-04-30T04:08:40;2.60;85.20
2441;DHT22;1231;53.988;9.470;2023-04-30T04:11:32;2.70;85.30
2441;DHT22;1231;53.988;9.470;2023-04-30T04:14:24;2.70;85.40
2441;DHT22;1231;53.988;9.470;2023-04-30T04:17:15;2.80;85.50
2441;DHT22;1231;53.988;9.470;2023-04-30T04:20:06;2.80;85.40
2441;DHT22;1231;53.988;9.470;2023-04-30T04:22:57;2.90;85.40
2441;DHT22;1231;53.988;9.470;2023-04-30T04:25:48;2.90;85.40
2441;DHT22;1231;53.988;9.470;2023-04-30T04:28:40;3.00;85.30
2441;DHT22;1231;53.988;9.470;2023-04-30T04:31:31;3.00;85.20
2441;DHT22;1231;53.988;9.470;2023-04-30T04:34:22;3.10;85.20
2441;DHT22;1231;53.988;9.470;2023-04-30T04:37:13;3.10;85.10
2441;DHT22;1231;53.988;9.470;2023-04-30T04:40:05;3.10;85.00
2441;DHT22;1231;53.988;9.470;2023-04-30T04:42:56;3.20;85.10
2441;DHT22;1231;53.988;9.470;2023-04-30T04:45:47;3.20;85.00
2441;DHT22;1231;53.988;9.470;2023-04-30T04:48:38;3.30;84.90
2441;DHT22;1231;53.988;9.470;2023-04-30T04:51:29;3.30;85.00
2441;DHT22;1231;53.988;9.470;2023-04-30T04:54:22;3.40;85.00
2441;DHT22;1231;53.988;9.470;2023-04-30T04:57:13;3.40;84.90
2441;DHT22;1231;53.988;9.470;2023-04-30T05:00:05;3.50;84.90
2441;DHT22;1231;53.988;9.470;2023-04-30T05:02:57;3.50;85.10
2441;DHT22;1231;53.988;9.470;2023-04-30T05:05:48;3.60;85.10
2441;DHT22;1231;53.988;9.470;2023-04-30T05:08:39;3.70;85.00
2441;DHT22;1231;53.988;9.470;2023-04-30T05:11:30;3.70;85.10
2441;DHT22;1231;53.988;9.470;2023-04-30T05:14:21;3.80;85.10
2441;DHT22;1231;53.988;9.470;2023-04-30T05:17:12;3.90;85.00
2441;DHT22;1231;53.988;9.470;2023-04-30T05:20:03;4.00;85.00
2441;DHT22;1231;53.988;9.470;2023-04-30T05:22:54;4.00;84.90
2441;DHT22;1231;53.988;9.470;2023-04-30T05:25:45;4.10;84.90
2441;DHT22;1231;53.988;9.470;2023-04-30T05:28:44;4.20;84.90
2441;DHT22;1231;53.988;9.470;2023-04-30T05:31:35;4.30;85.00
2441;DHT22;1231;53.988;9.470;2023-04-30T05:34:26;4.40;84.90
2441;DHT22;1231;53.988;9.470;2023-04-30T05:37:17;4.50;84.80
2441;DHT22;1231;53.988;9.470;2023-04-30T05:40:10;4.60;84.90
2441;DHT22;1231;53.988;9.470;2023-04-30T05:43:01;4.70;85.00
2441;DHT22;1231;53.988;9.470;2023-04-30T05:45:52;4.80;85.10
2441;DHT22;1231;53.988;9.470;2023-04-30T05:48:43;4.90;85.20
2441;DHT22;1231;53.988;9.470;2023-04-30T05:51:33;5.00;85.20
2441;DHT22;1231;53.988;9.470;2023-04-30T05:54:24;5.10;85.30
2441;DHT22;1231;53.988;9.470;2023-04-30T05:57:16;5.20;85.40
2441;DHT22;1231;53.988;9.470;2023-04-30T06:00:07;5.40;85.50
2441;DHT22;1231;53.988;9.470;2023-04-30T06:02:58;5.50;85.70
2441;DHT22;1231;53.988;9.470;2023-04-30T06:05:49;5.70;85.80
2441;DHT22;1231;53.988;9.470;2023-04-30T06:08:40;5.80;86.00
2441;DHT22;1231;53.988;9.470;2023-04-30T06:11:34;6.00;86.10
2441;DHT22;1231;53.988;9.470;2023-04-30T06:14:25;6.20;86.40
2441;DHT22;1231;53.988;9.470;2023-04-30T06:17:16;6.50;86.70
2441;DHT22;1231;53.988;9.470;2023-04-30T06:20:07;6.80;86.10
2441;DHT22;1231;53.988;9.470;2023-04-30T06:22:58;7.10;84.30
2441;DHT22;1231;53.988;9.470;2023-04-30T06:25:49;7.50;83.40
2441;DHT22;1231;53.988;9.470;2023-04-30T06:28:40;8.10;83.70
2441;DHT22;1231;53.988;9.470;2023-04-30T06:31:37;9.10;80.60
2441;DHT22;1231;53.988;9.470;2023-04-30T06:34:28;10.40;73.80
2441;DHT22;1231;53.988;9.470;2023-04-30T06:37:19;11.70;67.10
2441;DHT22;1231;53.988;9.470;2023-04-30T06:40:10;12.70;61.50
2441;DHT22;1231;53.988;9.470;2023-04-30T06:43:01;13.70;59.40
2441;DHT22;1231;53.988;9.470;2023-04-30T06:45:52;14.70;55.60
2441;DHT22;1231;53.988;9.470;2023-04-30T06:48:43;15.30;51.60
2441;DHT22;1231;53.988;9.470;2023-04-30T06:51:34;15.70;50.30
2441;DHT22;1231;53.988;9.470;2023-04-30T06:54:25;16.10;48.40
2441;DHT22;1231;53.988;9.470;2023-04-30T06:57:17;16.60;48.00
2441;DHT22;1231;53.988;9.470;2023-04-30T07:00:09;17.10;48.00
2441;DHT22;1231;53.988;9.470;2023-04-30T07:03:00;17.20;43.90
2441;DHT22;1231;53.988;9.470;2023-04-30T07:05:53;16.50;42.90
2441;DHT22;1231;53.988;9.470;2023-04-30T07:08:43;15.80;45.00
2441;DHT22;1231;53.988;9.470;2023-04-30T07:11:34;15.50;45.00
2441;DHT22;1231;53.988;9.470;2023-04-30T07:14:25;15.10;45.70
2441;DHT22;1231;53.988;9.470;2023-04-30T07:17:16;14.60;46.40
2441;DHT22;1231;53.988;9.470;2023-04-30T07:20:08;13.90;47.30
2441;DHT22;1231;53.988;9.470;2023-04-30T07:22:59;13.40;48.90
2441;DHT22;1231;53.988;9.470;2023-04-30T07:25:50;13.00;49.60
2441;DHT22;1231;53.988;9.470;2023-04-30T07:28:41;12.90;50.50
2441;DHT22;1231;53.988;9.470;2023-04-30T07:31:31;12.80;50.70
2441;DHT22;1231;53.988;9.470;2023-04-30T07:34:24;12.70;51.20
2441;DHT22;1231;53.988;9.470;2023-04-30T07:37:21;12.50;51.40
2441;DHT22;1231;53.988;9.470;2023-04-30T07:40:12;12.30;52.00
2441;DHT22;1231;53.988;9.470;2023-04-30T07:43:03;12.30;52.90
2441;DHT22;1231;53.988;9.470;2023-04-30T07:45:54;12.50;52.60
2441;DHT22;1231;53.988;9.470;2023-04-30T07:48:45;12.70;52.60
2441;DHT22;1231;53.988;9.470;2023-04-30T07:51:36;12.60;53.00
2441;DHT22;1231;53.988;9.470;2023-04-30T07:54:27;12.30;52.80
2441;DHT22;1231;53.988;9.470;2023-04-30T07:57:18;11.90;53.00
2441;DHT22;1231;53.988;9.470;2023-04-30T08:00:09;11.80;53.70
2441;DHT22;1231;53.988;9.470;2023-04-30T08:03:00;12.10;54.00
2441;DHT22;1231;53.988;9.470;2023-04-30T08:05:51;12.30;53.50
2441;DHT22;1231;53.988;9.470;2023-04-30T08:08:42;12.70;53.50
2441;DHT22;1231;53.988;9.470;2023-04-30T08:11:33;13.00;53.10
2441;DHT22;1231;53.988;9.470;2023-04-30T08:14:24;13.20;53.10
2441;DHT22;1231;53.988;9.470;2023-04-30T08:17:15;13.00;52.20
2441;DHT22;1231;53.988;9.470;2023-04-30T08:20:06;12.60;52.40
2441;DHT22;1231;53.988;9.470;2023-04-30T08:22:58;12.30;53.70
2441;DHT22;1231;53.988;9.470;2023-04-30T08:25:48;12.20;53.50
2441;DHT22;1231;53.988;9.470;2023-04-30T08:28:39;12.40;53.60
2441;DHT22;1231;53.988;9.470;2023-04-30T08:31:30;12.80;54.60
2441;DHT22;1231;53.988;9.470;2023-04-30T08:34:21;13.40;53.90
2441;DHT22;1231;53.988;9.470;2023-04-30T08:37:12;13.90;51.70
2441;DHT22;1231;53.988;9.470;2023-04-30T08:40:04;13.80;50.70
2441;DHT22;1231;53.988;9.470;2023-04-30T08:43:07;13.40;50.20
2441;DHT22;1231;53.988;9.470;2023-04-30T08:45:58;12.90;51.30
2441;DHT22;1231;53.988;9.470;2023-04-30T08:48:51;12.40;51.90
2441;DHT22;1231;53.988;9.470;2023-04-30T08:51:42;12.20;52.80
2441;DHT22;1231;53.988;9.470;2023-04-30T08:54:35;12.20;53.00
2441;DHT22;1231;53.988;9.470;2023-04-30T08:57:26;12.30;53.50
2441;DHT22;1231;53.988;9.470;2023-04-30T09:00:17;12.50;52.40
2441;DHT22;1231;53.988;9.470;2023-04-30T09:03:08;12.60;51.70
2441;DHT22;1231;53.988;9.470;2023-04-30T09:05:59;12.70;51.70
2441;DHT22;1231;53.988;9.470;2023-04-30T09:08:50;12.60;52.30
2441;DHT22;1231;53.988;9.470;2023-04-30T09:11:42;12.50;52.00
2441;DHT22;1231;53.988;9.470;2023-04-30T09:14:33;12.50;52.10
2441;DHT22;1231;53.988;9.470;2023-04-30T09:17:30;12.40;52.50
2441;DHT22;1231;53.988;9.470;2023-04-30T09:20:21;12.40;52.40
2441;DHT22;1231;53.988;9.470;2023-04-30T09:23:13;12.20;52.30
2441;DHT22;1231;53.988;9.470;2023-04-30T09:26:04;11.90;52.80
2441;DHT22;1231;53.988;9.470;2023-04-30T09:28:57;12.00;54.50
2441;DHT22;1231;53.988;9.470;2023-04-30T09:31:48;12.40;54.80
2441;DHT22;1231;53.988;9.470;2023-04-30T09:34:39;12.90;54.30
2441;DHT22;1231;53.988;9.470;2023-04-30T09:37:37;13.50;53.60
2441;DHT22;1231;53.988;9.470;2023-04-30T09:40:39;13.90;52.50
2441;DHT22;1231;53.988;9.470;2023-04-30T09:43:30;14.20;52.70
2441;DHT22;1231;53.988;9.470;2023-04-30T09:46:28;14.30;50.80
2441;DHT22;1231;53.988;9.470;2023-04-30T09:49:20;14.00;49.50
2441;DHT22;1231;53.988;9.470;2023-04-30T09:52:11;13.70;50.00
2441;DHT22;1231;53.988;9.470;2023-04-30T09:55:05;13.60;50.00
2441;DHT22;1231;53.988;9.470;2023-04-30T09:57:56;13.50;50.30
2441;DHT22;1231;53.988;9.470;2023-04-30T10:00:49;13.30;50.80
2441;DHT22;1231;53.988;9.470;2023-04-30T10:03:42;13.10;50.60
2441;DHT22;1231;53.988;9.470;2023-04-30T10:06:33;12.90;50.90
2441;DHT22;1231;53.988;9.470;2023-04-30T10:09:35;12.80;51.40
2441;DHT22;1231;53.988;9.470;2023-04-30T10:12:44;12.80;51.00
2441;DHT22;1231;53.988;9.470;2023-04-30T10:15:44;12.90;52.00
2441;DHT22;1231;53.988;9.470;2023-04-30T10:18:39;13.00;50.80
2441;DHT22;1231;53.988;9.470;2023-04-30T10:21:32;13.10;51.70
2441;DHT22;1231;53.988;9.470;2023-04-30T10:24:23;13.30;51.50
2441;DHT22;1231;53.988;9.470;2023-04-30T10:27:18;13.30;50.90
2441;DHT22;1231;53.988;9.470;2023-04-30T10:30:09;13.30;50.70
2441;DHT22;1231;53.988;9.470;2023-04-30T10:33:22;13.10;51.00
2441;DHT22;1231;53.988;9.470;2023-04-30T10:36:23;13.20;51.50
2441;DHT22;1231;53.988;9.470;2023-04-30T10:39:20;13.40;51.20
2441;DHT22;1231;53.988;9.470;2023-04-30T10:42:12;13.40;50.30
2441;DHT22;1231;53.988;9.470;2023-04-30T10:45:03;13.50;50.80
2441;DHT22;1231;53.988;9.470;2023-04-30T10:47:54;13.60;52.00
2441;DHT22;1231;53.988;9.470;2023-04-30T10:50:46;13.80;52.50
2441;DHT22;1231;53.988;9.470;2023-04-30T10:53:41;14.00;52.40
2441;DHT22;1231;53.988;9.470;2023-04-30T10:56:35;14.20;52.90
2441;DHT22;1231;53.988;9.470;2023-04-30T10:59:27;14.30;51.70
2441;DHT22;1231;53.988;9.470;2023-04-30T11:02:18;14.30;50.80
2441;DHT22;1231;53.988;9.470;2023-04-30T11:05:17;14.30;49.90
2441;DHT22;1231;53.988;9.470;2023-04-30T11:08:10;14.10;49.10
2441;DHT22;1231;53.988;9.470;2023-04-30T11:11:02;14.00;49.50
2441;DHT22;1231;53.988;9.470;2023-04-30T11:14:00;13.90;48.50
2441;DHT22;1231;53.988;9.470;2023-04-30T11:16:52;13.90;49.10
2441;DHT22;1231;53.988;9.470;2023-04-30T11:19:47;14.10;49.40
2441;DHT22;1231;53.988;9.470;2023-04-30T11:22:39;14.20;49.40
2441;DHT22;1231;53.988;9.470;2023-04-30T11:25:47;14.20;50.10
2441;DHT22;1231;53.988;9.470;2023-04-30T11:28:49;14.30;52.10
2441;DHT22;1231;53.988;9.470;2023-04-30T11:31:41;14.60;53.60
2441;DHT22;1231;53.988;9.470;2023-04-30T11:34:33;14.70;50.50
2441;DHT22;1231;53.988;9.470;2023-04-30T11:37:31;14.60;51.30
2441;DHT22;1231;53.988;9.470;2023-04-30T11:40:22;14.70;50.30
2441;DHT22;1231;53.988;9.470;2023-04-30T11:43:24;14.70;50.30
2441;DHT22;1231;53.988;9.470;2023-04-30T11:46:15;14.80;51.70
2441;DHT22;1231;53.988;9.470;2023-04-30T11:49:07;14.90;50.90
2441;DHT22;1231;53.988;9.470;2023-04-30T11:51:58;15.00;50.40
2441;DHT22;1231;53.988;9.470;2023-04-30T11:54:49;15.10;51.40
2441;DHT22;1231;53.988;9.470;2023-04-30T11:57:45;15.20;50.40
2441;DHT22;1231;53.988;9.470;2023-04-30T12:00:36;15.10;49.10
2441;DHT22;1231;53.988;9.470;2023-04-30T12:03:27;15.10;48.90
2441;DHT22;1231;53.988;9.470;2023-04-30T12:06:27;15.10;48.20
2441;DHT22;1231;53.988;9.470;2023-04-30T12:09:18;15.00;47.90
2441;DHT22;1231;53.988;9.470;2023-04-30T12:12:09;14.90;48.00
2441;DHT22;1231;53.988;9.470;2023-04-30T12:15:10;14.70;47.70
2441;DHT22;1231;53.988;9.470;2023-04-30T12:18:16;14.60;47.90
2441;DHT22;1231;53.988;9.470;2023-04-30T12:21:08;14.70;48.60
2441;DHT22;1231;53.988;9.470;2023-04-30T12:23:59;14.70;49.40
2441;DHT22;1231;53.988;9.470;2023-04-30T12:26:52;14.90;49.70
2441;DHT22;1231;53.988;9.470;2023-04-30T12:29:43;15.00;49.60
2441;DHT22;1231;53.988;9.470;2023-04-30T12:32:40;15.00;48.50
2441;DHT22;1231;53.988;9.470;2023-04-30T12:35:31;15.10;49.60
2441;DHT22;1231;53.988;9.470;2023-04-30T12:38:22;15.10;48.80
2441;DHT22;1231;53.988;9.470;2023-04-30T12:41:13;15.10;48.40
2441;DHT22;1231;53.988;9.470;2023-04-30T12:47:08;15.10;48.40
2441;DHT22;1231;53.988;9.470;2023-04-30T12:49:59;15.00;47.40
2441;DHT22;1231;53.988;9.470;2023-04-30T12:52:50;14.70;46.40
2441;DHT22;1231;53.988;9.470;2023-04-30T12:55:41;14.50;46.80
2441;DHT22;1231;53.988;9.470;2023-04-30T12:58:32;14.40;46.60
2441;DHT22;1231;53.988;9.470;2023-04-30T13:01:23;14.40;48.00
2441;DHT22;1231;53.988;9.470;2023-04-30T13:04:15;14.50;48.40
2441;DHT22;1231;53.988;9.470;2023-04-30T13:07:07;14.60;47.50
2441;DHT22;1231;53.988;9.470;2023-04-30T13:09:58;14.70;48.50
2441;DHT22;1231;53.988;9.470;2023-04-30T13:12:52;14.70;49.90
2441;DHT22;1231;53.988;9.470;2023-04-30T13:15:43;14.80;48.90
2441;DHT22;1231;53.988;9.470;2023-04-30T13:18:34;14.90;48.40
2441;DHT22;1231;53.988;9.470;2023-04-30T13:21:25;15.00;48.20
2441;DHT22;1231;53.988;9.470;2023-04-30T13:24:17;15.00;49.20
2441;DHT22;1231;53.988;9.470;2023-04-30T13:27:14;15.10;49.60
2441;DHT22;1231;53.988;9.470;2023-04-30T13:30:05;15.20;49.30
2441;DHT22;1231;53.988;9.470;2023-04-30T13:32:56;15.30;49.60
2441;DHT22;1231;53.988;9.470;2023-04-30T13:35:49;15.40;49.80
2441;DHT22;1231;53.988;9.470;2023-04-30T13:38:40;15.50;49.90
2441;DHT22;1231;53.988;9.470;2023-04-30T13:41:32;15.50;49.90
2441;DHT22;1231;53.988;9.470;2023-04-30T13:44:23;15.40;49.20
2441;DHT22;1231;53.988;9.470;2023-04-30T13:47:15;15.40;50.40
2441;DHT22;1231;53.988;9.470;2023-04-30T13:50:06;15.50;51.20
2441;DHT22;1231;53.988;9.470;2023-04-30T13:52:58;15.50;51.10
2441;DHT22;1231;53.988;9.470;2023-04-30T13:55:49;15.60;50.70
2441;DHT22;1231;53.988;9.470;2023-04-30T13:58:39;15.60;49.90
2441;DHT22;1231;53.988;9.470;2023-04-30T14:01:30;15.60;49.60
2441;DHT22;1231;53.988;9.470;2023-04-30T14:04:23;15.60;49.90
2441;DHT22;1231;53.988;9.470;2023-04-30T14:07:14;15.70;50.00
2441;DHT22;1231;53.988;9.470;2023-04-30T14:10:05;15.70;51.20
2441;DHT22;1231;53.988;9.470;2023-04-30T14:12:56;15.70;51.90
2441;DHT22;1231;53.988;9.470;2023-04-30T14:15:47;15.80;51.70
2441;DHT22;1231;53.988;9.470;2023-04-30T14:18:38;15.70;52.00
2441;DHT22;1231;53.988;9.470;2023-04-30T14:21:29;15.80;51.70
2441;DHT22;1231;53.988;9.470;2023-04-30T14:24:20;15.80;51.50
2441;DHT22;1231;53.988;9.470;2023-04-30T14:27:11;15.80;51.00
2441;DHT22;1231;53.988;9.470;2023-04-30T14:30:02;15.80;50.60
2441;DHT22;1231;53.988;9.470;2023-04-30T14:32:53;15.80;50.60
2441;DHT22;1231;53.988;9.470;2023-04-30T14:35:45;15.80;50.90
2441;DHT22;1231;53.988;9.470;2023-04-30T14:38:37;15.80;51.10
2441;DHT22;1231;53.988;9.470;2023-04-30T14:41:27;15.80;49.80
2441;DHT22;1231;53.988;9.470;2023-04-30T14:44:18;15.70;50.30
2441;DHT22;1231;53.988;9.470;2023-04-30T14:47:10;15.70;50.40
2441;DHT22;1231;53.988;9.470;2023-04-30T14:50:02;15.70;51.40
2441;DHT22;1231;53.988;9.470;2023-04-30T14:52:53;15.70;51.90
2441;DHT22;1231;53.988;9.470;2023-04-30T14:55:44;15.70;51.80
2441;DHT22;1231;53.988;9.470;2023-04-30T14:58:34;15.70;52.00
2441;DHT22;1231;53.988;9.470;2023-04-30T15:01:26;15.70;51.70
2441;DHT22;1231;53.988;9.470;2023-04-30T15:04:17;15.80;51.90
2441;DHT22;1231;53.988;9.470;2023-04-30T15:07:08;15.80;52.10
2441;DHT22;1231;53.988;9.470;2023-04-30T15:09:59;15.80;51.90
2441;DHT22;1231;53.988;9.470;2023-04-30T15:12:50;15.80;52.50
2441;DHT22;1231;53.988;9.470;2023-04-30T15:15:41;15.60;50.80
2441;DHT22;1231;53.988;9.470;2023-04-30T15:18:33;15.40;50.70
2441;DHT22;1231;53.988;9.470;2023-04-30T15:21:24;15.40;50.70
2441;DHT22;1231;53.988;9.470;2023-04-30T15:24:16;15.30;50.20
2441;DHT22;1231;53.988;9.470;2023-04-30T15:27:07;15.30;50.30
2441;DHT22;1231;53.988;9.470;2023-04-30T15:29:59;15.20;49.80
2441;DHT22;1231;53.988;9.470;2023-04-30T15:32:50;15.10;50.20
2441;DHT22;1231;53.988;9.470;2023-04-30T15:35:41;15.00;50.30
2441;DHT22;1231;53.988;9.470;2023-04-30T15:38:32;15.00;50.30
2441;DHT22;1231;53.988;9.470;2023-04-30T15:41:25;15.00;50.00
2441;DHT22;1231;53.988;9.470;2023-04-30T15:44:15;15.10;50.40
2441;DHT22;1231;53.988;9.470;2023-04-30T15:47:06;15.00;50.20
2441;DHT22;1231;53.988;9.470;2023-04-30T15:49:58;14.90;50.40
2441;DHT22;1231;53.988;9.470;2023-04-30T15:52:50;14.80;49.90
2441;DHT22;1231;53.988;9.470;2023-04-30T15:55:41;14.80;50.30
2441;DHT22;1231;53.988;9.470;2023-04-30T15:58:33;14.80;50.50
2441;DHT22;1231;53.988;9.470;2023-04-30T16:01:24;14.80;50.40
2441;DHT22;1231;53.988;9.470;2023-04-30T16:04:15;14.90;50.50
2441;DHT22;1231;53.988;9.470;2023-04-30T16:07:06;15.00;50.60
2441;DHT22;1231;53.988;9.470;2023-04-30T16:09:58;15.00;50.60
2441;DHT22;1231;53.988;9.470;2023-04-30T16:12:50;15.10;50.50
2441;DHT22;1231;53.988;9.470;2023-04-30T16:15:41;15.10;50.50
2441;DHT22;1231;53.988;9.470;2023-04-30T16:18:31;15.10;50.70
2441;DHT22;1231;53.988;9.470;2023-04-30T16:21:22;15.00;50.50
2441;DHT22;1231;53.988;9.470;2023-04-30T16:24:14;15.00;50.90
2441;DHT22;1231;53.988;9.470;2023-04-30T16:27:05;15.00;50.90
2441;DHT22;1231;53.988;9.470;2023-04-30T16:29:58;14.90;50.60
2441;DHT22;1231;53.988;9.470;2023-04-30T16:32:48;14.90;51.00
2441;DHT22;1231;53.988;9.470;2023-04-30T16:35:39;14.90;51.80
2441;DHT22;1231;53.988;9.470;2023-04-30T16:38:30;14.90;51.70
2441;DHT22;1231;53.988;9.470;2023-04-30T16:41:21;14.80;51.50
2441;DHT22;1231;53.988;9.470;2023-04-30T16:44:12;14.80;51.60
2441;DHT22;1231;53.988;9.470;2023-04-30T16:47:03;14.80;52.60
2441;DHT22;1231;53.988;9.470;2023-04-30T16:49:54;14.80;52.50
2441;DHT22;1231;53.988;9.470;2023-04-30T16:52:45;14.80;52.70
2441;DHT22;1231;53.988;9.470;2023-04-30T16:55:36;14.80;53.10
2441;DHT22;1231;53.988;9.470;2023-04-30T16:58:27;14.80;53.40
2441;DHT22;1231;53.988;9.470;2023-04-30T17:01:18;14.70;53.70
2441;DHT22;1231;53.988;9.470;2023-04-30T17:04:09;14.70;53.20
2441;DHT22;1231;53.988;9.470;2023-04-30T17:07:01;14.70;52.40
2441;DHT22;1231;53.988;9.470;2023-04-30T17:09:55;14.50;53.10
2441;DHT22;1231;53.988;9.470;2023-04-30T17:12:46;14.50;54.10
2441;DHT22;1231;53.988;9.470;2023-04-30T17:15:38;14.40;55.00
2441;DHT22;1231;53.988;9.470;2023-04-30T17:18:29;14.40;55.60
2441;DHT22;1231;53.988;9.470;2023-04-30T17:21:20;14.40;55.80
2441;DHT22;1231;53.988;9.470;2023-04-30T17:24:11;14.30;55.90
2441;DHT22;1231;53.988;9.470;2023-04-30T17:27:02;14.30;55.90
2441;DHT22;1231;53.988;9.470;2023-04-30T17:29:56;14.20;56.00
2441;DHT22;1231;53.988;9.470;2023-04-30T17:32:47;14.10;56.20
2441;DHT22;1231;53.988;9.470;2023-04-30T17:35:38;14.00;56.50
2441;DHT22;1231;53.988;9.470;2023-04-30T17:38:29;13.90;56.60
2441;DHT22;1231;53.988;9.470;2023-04-30T17:41:20;13.80;56.70
2441;DHT22;1231;53.988;9.470;2023-04-30T17:44:11;13.70;57.00
2441;DHT22;1231;53.988;9.470;2023-04-30T17:47:02;13.70;57.30
2441;DHT22;1231;53.988;9.470;2023-04-30T17:49:53;13.60;57.30
2441;DHT22;1231;53.988;9.470;2023-04-30T17:52:44;13.50;57.50
2441;DHT22;1231;53.988;9.470;2023-04-30T17:55:42;13.40;57.50
2441;DHT22;1231;53.988;9.470;2023-04-30T17:58:33;13.30;58.00
2441;DHT22;1231;53.988;9.470;2023-04-30T18:01:24;13.30;58.10
2441;DHT22;1231;53.988;9.470;2023-04-30T18:04:17;13.20;58.50
2441;DHT22;1231;53.988;9.470;2023-04-30T18:07:08;13.10;58.60
2441;DHT22;1231;53.988;9.470;2023-04-30T18:09:59;13.00;58.90
2441;DHT22;1231;53.988;9.470;2023-04-30T18:12:51;12.90;59.30
2441;DHT22;1231;53.988;9.470;2023-04-30T18:15:42;12.80;59.50
2441;DHT22;1231;53.988;9.470;2023-04-30T18:18:36;12.70;60.00
2441;DHT22;1231;53.988;9.470;2023-04-30T18:21:27;12.60;60.50
2441;DHT22;1231;53.988;9.470;2023-04-30T18:24:18;12.50;61.00
2441;DHT22;1231;53.988;9.470;2023-04-30T18:27:10;12.40;61.30
2441;DHT22;1231;53.988;9.470;2023-04-30T18:30:01;12.30;61.40
2441;DHT22;1231;53.988;9.470;2023-04-30T18:32:53;12.20;61.80
2441;DHT22;1231;53.988;9.470;2023-04-30T18:35:44;12.10;62.30
2441;DHT22;1231;53.988;9.470;2023-04-30T18:38:39;11.90;62.80
2441;DHT22;1231;53.988;9.470;2023-04-30T18:41:30;11.80;63.10
2441;DHT22;1231;53.988;9.470;2023-04-30T18:44:30;11.70;63.30
2441;DHT22;1231;53.988;9.470;2023-04-30T18:47:22;11.50;63.70
2441;DHT22;1231;53.988;9.470;2023-04-30T18:50:13;11.40;64.10
2441;DHT22;1231;53.988;9.470;2023-04-30T18:53:09;11.20;64.40
2441;DHT22;1231;53.988;9.470;2023-04-30T18:56:00;11.10;64.90
2441;DHT22;1231;53.988;9.470;2023-04-30T18:58:51;11.00;65.40
2441;DHT22;1231;53.988;9.470;2023-04-30T19:01:42;10.90;65.80
2441;DHT22;1231;53.988;9.470;2023-04-30T19:04:33;10.70;66.20
2441;DHT22;1231;53.988;9.470;2023-04-30T19:07:24;10.60;66.60
2441;DHT22;1231;53.988;9.470;2023-04-30T19:10:15;10.50;66.70
2441;DHT22;1231;53.988;9.470;2023-04-30T19:13:06;10.50;67.10
2441;DHT22;1231;53.988;9.470;2023-04-30T19:15:57;10.40;67.00